This is the latest recevied weather packets stored in our database for station/object N7WSS. If no packets are shown the sender has not sent any weather packets the latest 1 day(s).
| Time | Temp. | Humidity | Pressure | Rain* | Wind** | Luminosity | Snow |
|---|---|---|---|---|---|---|---|
| 1778065699 | 9.44° C | 78% | 1013.1 hPa | 0 mm | - | - | - |
| 1778064487 | 10° C | 77% | 1013.1 hPa | 0 mm | - | - | - |
| 1778063881 | 10° C | 75% | 1013.2 hPa | 0 mm | - | - | - |
| 1778063579 | 10° C | 76% | 1013 hPa | 0 mm | - | - | - |
| 1778063276 | 10° C | 75% | 1012.9 hPa | 0 mm | - | - | - |
| 1778062974 | 10.56° C | 74% | 1012.7 hPa | 0 mm | - | - | - |
| 1778062671 | 10.56° C | 72% | 1012.9 hPa | 0 mm | - | - | - |
| 1778062065 | 11.11° C | 68% | 1012.9 hPa | 0 mm | - | - | - |
| 1778061462 | 10.56° C | 72% | 1012.6 hPa | 0 mm | - | - | - |
| 1778061158 | 10.56° C | 72% | 1012.8 hPa | 0 mm | - | - | - |
| 1778060855 | 10.56° C | 72% | 1012.7 hPa | 0 mm | - | - | - |
| 1778060553 | 11.11° C | 72% | 1012.8 hPa | 0 mm | - | - | - |
| 1778059646 | 11.11° C | 73% | 1012.6 hPa | 0 mm | - | - | - |
| 1778059041 | 11.11° C | 71% | 1012.5 hPa | 0 mm | - | - | - |
| 1778058738 | 11.67° C | 70% | 1012.6 hPa | 0 mm | - | - | - |
| 1778058436 | 11.67° C | 72% | 1012.7 hPa | 0 mm | - | - | - |
| 1778056919 | 12.78° C | 63% | 1012.7 hPa | 0 mm | - | - | - |
| 1778056011 | 12.78° C | 63% | 1012.8 hPa | 0 mm | - | - | - |
| 1778055409 | 12.78° C | 66% | 1012.7 hPa | 0 mm | - | - | - |
| 1778055107 | 12.78° C | 65% | 1012.8 hPa | 0 mm | - | - | - |
| 1778054804 | 12.78° C | 65% | 1012.8 hPa | 0 mm | - | - | - |
| 1778053895 | 12.78° C | 63% | 1012.9 hPa | 0 mm | - | - | - |
| 1778053593 | 12.78° C | 63% | 1012.7 hPa | 0 mm | - | - | - |
| 1778053290 | 12.78° C | 63% | 1012.8 hPa | 0 mm | - | - | - |
| 1778052685 | 13.33° C | 63% | 1012.7 hPa | 0 mm | - | - | - |
* Rain latest hour (hover to see other rain measurements)
** Current wind speed in m/s (hover to see current wind gust speed)